sensor_id;sensor_type;location;lat;lon;timestamp;temperature;humidity
44894;DHT22;30625;52.206;21.030;2023-01-08T00:01:07;4.90;99.90
44894;DHT22;30625;52.206;21.030;2023-01-08T00:03:34;4.90;99.90
44894;DHT22;30625;52.206;21.030;2023-01-08T00:06:01;4.90;99.90
44894;DHT22;30625;52.206;21.030;2023-01-08T00:08:28;4.90;99.90
44894;DHT22;30625;52.206;21.030;2023-01-08T00:10:54;5.30;99.90
44894;DHT22;30625;52.206;21.030;2023-01-08T00:13:20;4.80;99.90
44894;DHT22;30625;52.206;21.030;2023-01-08T00:15:46;4.80;99.90
44894;DHT22;30625;52.206;21.030;2023-01-08T00:18:11;4.80;99.90
44894;DHT22;30625;52.206;21.030;2023-01-08T00:20:40;4.80;99.90
44894;DHT22;30625;52.206;21.030;2023-01-08T00:23:12;4.80;99.90
44894;DHT22;30625;52.206;21.030;2023-01-08T00:25:38;4.80;99.90
44894;DHT22;30625;52.206;21.030;2023-01-08T00:28:04;4.70;99.90
44894;DHT22;30625;52.206;21.030;2023-01-08T00:30:30;4.70;99.90
44894;DHT22;30625;52.206;21.030;2023-01-08T00:32:56;4.80;99.90
44894;DHT22;30625;52.206;21.030;2023-01-08T00:35:21;4.80;99.90
44894;DHT22;30625;52.206;21.030;2023-01-08T00:37:50;4.80;99.90
44894;DHT22;30625;52.206;21.030;2023-01-08T00:40:16;5.60;99.90
44894;DHT22;30625;52.206;21.030;2023-01-08T00:42:42;4.70;99.90
44894;DHT22;30625;52.206;21.030;2023-01-08T00:45:08;4.80;99.90
44894;DHT22;30625;52.206;21.030;2023-01-08T00:47:33;4.70;99.90
44894;DHT22;30625;52.206;21.030;2023-01-08T00:49:59;4.70;99.90
44894;DHT22;30625;52.206;21.030;2023-01-08T00:52:25;4.70;99.90
44894;DHT22;30625;52.206;21.030;2023-01-08T00:54:50;4.70;99.90
44894;DHT22;30625;52.206;21.030;2023-01-08T00:57:16;4.60;99.90
44894;DHT22;30625;52.206;21.030;2023-01-08T00:59:42;4.90;99.90
44894;DHT22;30625;52.206;21.030;2023-01-08T01:02:08;4.60;99.90
44894;DHT22;30625;52.206;21.030;2023-01-08T01:04:34;4.60;99.90
44894;DHT22;30625;52.206;21.030;2023-01-08T01:07:00;4.50;99.90
44894;DHT22;30625;52.206;21.030;2023-01-08T01:09:26;4.50;99.90
44894;DHT22;30625;52.206;21.030;2023-01-08T01:11:51;4.40;99.90
44894;DHT22;30625;52.206;21.030;2023-01-08T01:14:17;4.40;99.90
44894;DHT22;30625;52.206;21.030;2023-01-08T01:16:43;4.40;99.90
44894;DHT22;30625;52.206;21.030;2023-01-08T01:19:12;4.30;99.90
44894;DHT22;30625;52.206;21.030;2023-01-08T01:21:38;4.40;99.90
44894;DHT22;30625;52.206;21.030;2023-01-08T01:24:05;4.30;99.90
44894;DHT22;30625;52.206;21.030;2023-01-08T01:26:32;4.40;99.90
44894;DHT22;30625;52.206;21.030;2023-01-08T01:28:58;4.40;99.90
44894;DHT22;30625;52.206;21.030;2023-01-08T01:31:27;4.30;99.90
44894;DHT22;30625;52.206;21.030;2023-01-08T01:33:53;4.40;99.90
44894;DHT22;30625;52.206;21.030;2023-01-08T01:36:20;4.40;99.90
44894;DHT22;30625;52.206;21.030;2023-01-08T01:38:49;4.30;99.90
44894;DHT22;30625;52.206;21.030;2023-01-08T01:43:49;4.40;99.90
44894;DHT22;30625;52.206;21.030;2023-01-08T01:46:37;4.40;99.90
44894;DHT22;30625;52.206;21.030;2023-01-08T01:49:11;4.40;99.90
44894;DHT22;30625;52.206;21.030;2023-01-08T01:51:48;4.30;99.90
44894;DHT22;30625;52.206;21.030;2023-01-08T01:54:15;4.30;99.90
44894;DHT22;30625;52.206;21.030;2023-01-08T01:56:42;4.30;99.90
44894;DHT22;30625;52.206;21.030;2023-01-08T01:59:10;4.30;99.90
44894;DHT22;30625;52.206;21.030;2023-01-08T02:01:37;4.30;99.90
44894;DHT22;30625;52.206;21.030;2023-01-08T02:04:05;4.60;99.90
44894;DHT22;30625;52.206;21.030;2023-01-08T02:06:45;4.30;99.90
44894;DHT22;30625;52.206;21.030;2023-01-08T02:15:13;4.40;99.90
44894;DHT22;30625;52.206;21.030;2023-01-08T02:20:34;4.40;99.90
44894;DHT22;30625;52.206;21.030;2023-01-08T02:28:27;4.50;99.90
44894;DHT22;30625;52.206;21.030;2023-01-08T02:30:53;4.50;99.90
44894;DHT22;30625;52.206;21.030;2023-01-08T02:33:22;4.50;99.90
44894;DHT22;30625;52.206;21.030;2023-01-08T02:35:54;4.50;99.90
44894;DHT22;30625;52.206;21.030;2023-01-08T02:38:38;4.50;99.90
44894;DHT22;30625;52.206;21.030;2023-01-08T02:41:09;4.50;99.90
44894;DHT22;30625;52.206;21.030;2023-01-08T02:43:44;4.50;99.90
44894;DHT22;30625;52.206;21.030;2023-01-08T02:46:13;4.50;99.90
44894;DHT22;30625;52.206;21.030;2023-01-08T02:48:48;4.40;99.90
44894;DHT22;30625;52.206;21.030;2023-01-08T02:51:28;4.40;99.90
44894;DHT22;30625;52.206;21.030;2023-01-08T02:53:59;4.30;99.90
44894;DHT22;30625;52.206;21.030;2023-01-08T02:56:30;4.40;99.90
44894;DHT22;30625;52.206;21.030;2023-01-08T02:58:58;4.30;99.90
44894;DHT22;30625;52.206;21.030;2023-01-08T03:01:26;4.20;99.90
44894;DHT22;30625;52.206;21.030;2023-01-08T03:03:58;4.30;99.90
44894;DHT22;30625;52.206;21.030;2023-01-08T03:06:25;4.40;99.90
44894;DHT22;30625;52.206;21.030;2023-01-08T03:08:53;4.20;99.90
44894;DHT22;30625;52.206;21.030;2023-01-08T03:11:19;4.00;99.90
44894;DHT22;30625;52.206;21.030;2023-01-08T03:14:08;4.00;99.90
44894;DHT22;30625;52.206;21.030;2023-01-08T03:16:40;4.00;99.90
44894;DHT22;30625;52.206;21.030;2023-01-08T03:19:11;3.90;99.90
44894;DHT22;30625;52.206;21.030;2023-01-08T03:21:40;3.90;99.90
44894;DHT22;30625;52.206;21.030;2023-01-08T03:24:07;3.90;99.90
44894;DHT22;30625;52.206;21.030;2023-01-08T03:26:36;3.90;99.90
44894;DHT22;30625;52.206;21.030;2023-01-08T03:29:04;4.00;99.90
44894;DHT22;30625;52.206;21.030;2023-01-08T03:31:30;3.80;99.90
44894;DHT22;30625;52.206;21.030;2023-01-08T03:34:00;4.40;99.90
44894;DHT22;30625;52.206;21.030;2023-01-08T03:36:27;3.80;99.90
44894;DHT22;30625;52.206;21.030;2023-01-08T03:39:08;3.90;99.90
44894;DHT22;30625;52.206;21.030;2023-01-08T03:41:35;4.60;99.90
44894;DHT22;30625;52.206;21.030;2023-01-08T03:44:01;3.70;99.90
44894;DHT22;30625;52.206;21.030;2023-01-08T03:46:38;3.80;99.90
44894;DHT22;30625;52.206;21.030;2023-01-08T03:49:05;3.60;99.90
44894;DHT22;30625;52.206;21.030;2023-01-08T03:51:43;3.60;99.90
44894;DHT22;30625;52.206;21.030;2023-01-08T03:54:16;3.60;99.90
44894;DHT22;30625;52.206;21.030;2023-01-08T03:56:42;3.60;99.90
44894;DHT22;30625;52.206;21.030;2023-01-08T03:59:10;3.70;99.90
44894;DHT22;30625;52.206;21.030;2023-01-08T04:01:35;3.80;99.90
44894;DHT22;30625;52.206;21.030;2023-01-08T04:04:01;3.60;99.90
44894;DHT22;30625;52.206;21.030;2023-01-08T04:06:27;3.70;99.90
44894;DHT22;30625;52.206;21.030;2023-01-08T04:08:52;3.60;99.90
44894;DHT22;30625;52.206;21.030;2023-01-08T04:11:18;3.70;99.90
44894;DHT22;30625;52.206;21.030;2023-01-08T04:13:44;3.60;99.90
44894;DHT22;30625;52.206;21.030;2023-01-08T04:16:10;3.80;99.90
44894;DHT22;30625;52.206;21.030;2023-01-08T04:18:35;3.70;99.90
44894;DHT22;30625;52.206;21.030;2023-01-08T04:21:01;3.70;99.90
44894;DHT22;30625;52.206;21.030;2023-01-08T04:23:27;3.70;99.90
44894;DHT22;30625;52.206;21.030;2023-01-08T04:25:52;3.70;99.90
44894;DHT22;30625;52.206;21.030;2023-01-08T04:28:18;3.70;99.90
44894;DHT22;30625;52.206;21.030;2023-01-08T04:30:44;3.80;99.90
44894;DHT22;30625;52.206;21.030;2023-01-08T04:33:09;3.70;99.90
44894;DHT22;30625;52.206;21.030;2023-01-08T04:35:35;3.70;99.90
44894;DHT22;30625;52.206;21.030;2023-01-08T04:38:00;3.70;99.90
44894;DHT22;30625;52.206;21.030;2023-01-08T04:40:26;4.00;99.90
44894;DHT22;30625;52.206;21.030;2023-01-08T04:42:52;3.60;99.90
44894;DHT22;30625;52.206;21.030;2023-01-08T04:45:18;3.60;99.90
44894;DHT22;30625;52.206;21.030;2023-01-08T04:47:43;3.60;99.90
44894;DHT22;30625;52.206;21.030;2023-01-08T04:50:09;3.50;99.90
44894;DHT22;30625;52.206;21.030;2023-01-08T04:52:35;3.60;99.90
44894;DHT22;30625;52.206;21.030;2023-01-08T04:55:01;3.60;99.90
44894;DHT22;30625;52.206;21.030;2023-01-08T04:57:27;3.60;99.90
44894;DHT22;30625;52.206;21.030;2023-01-08T04:59:52;4.80;99.90
44894;DHT22;30625;52.206;21.030;2023-01-08T05:02:18;3.70;99.90
44894;DHT22;30625;52.206;21.030;2023-01-08T05:04:44;4.10;99.90
44894;DHT22;30625;52.206;21.030;2023-01-08T05:07:09;3.70;99.90
44894;DHT22;30625;52.206;21.030;2023-01-08T05:09:35;3.70;99.90
44894;DHT22;30625;52.206;21.030;2023-01-08T05:12:00;3.70;99.90
44894;DHT22;30625;52.206;21.030;2023-01-08T05:14:26;4.20;99.90
44894;DHT22;30625;52.206;21.030;2023-01-08T05:16:52;3.60;99.90
44894;DHT22;30625;52.206;21.030;2023-01-08T05:19:17;3.60;99.90
44894;DHT22;30625;52.206;21.030;2023-01-08T05:21:43;3.60;99.90
44894;DHT22;30625;52.206;21.030;2023-01-08T05:24:09;3.70;99.90
44894;DHT22;30625;52.206;21.030;2023-01-08T05:26:34;3.70;99.90
44894;DHT22;30625;52.206;21.030;2023-01-08T05:29:00;3.60;99.90
44894;DHT22;30625;52.206;21.030;2023-01-08T05:31:26;3.60;99.90
44894;DHT22;30625;52.206;21.030;2023-01-08T05:33:51;3.70;99.90
44894;DHT22;30625;52.206;21.030;2023-01-08T05:36:17;3.60;99.90
44894;DHT22;30625;52.206;21.030;2023-01-08T05:38:43;3.60;99.90
44894;DHT22;30625;52.206;21.030;2023-01-08T05:41:09;3.70;99.90
44894;DHT22;30625;52.206;21.030;2023-01-08T05:43:35;3.60;99.90
44894;DHT22;30625;52.206;21.030;2023-01-08T05:46:02;3.70;99.90
44894;DHT22;30625;52.206;21.030;2023-01-08T05:48:29;3.60;99.90
44894;DHT22;30625;52.206;21.030;2023-01-08T05:50:56;3.60;99.90
44894;DHT22;30625;52.206;21.030;2023-01-08T05:53:21;3.70;99.90
44894;DHT22;30625;52.206;21.030;2023-01-08T05:55:47;3.70;99.90
44894;DHT22;30625;52.206;21.030;2023-01-08T05:58:13;4.30;99.90
44894;DHT22;30625;52.206;21.030;2023-01-08T06:00:39;3.60;99.90
44894;DHT22;30625;52.206;21.030;2023-01-08T06:03:04;3.70;99.90
44894;DHT22;30625;52.206;21.030;2023-01-08T06:05:31;3.60;99.90
44894;DHT22;30625;52.206;21.030;2023-01-08T06:07:57;3.50;99.90
44894;DHT22;30625;52.206;21.030;2023-01-08T06:10:22;3.60;99.90
44894;DHT22;30625;52.206;21.030;2023-01-08T06:12:48;3.60;99.90
44894;DHT22;30625;52.206;21.030;2023-01-08T06:15:14;3.60;99.90
44894;DHT22;30625;52.206;21.030;2023-01-08T06:17:40;3.60;99.90
44894;DHT22;30625;52.206;21.030;2023-01-08T06:20:06;3.60;99.90
44894;DHT22;30625;52.206;21.030;2023-01-08T06:22:33;3.70;99.90
44894;DHT22;30625;52.206;21.030;2023-01-08T06:24:58;3.60;99.90
44894;DHT22;30625;52.206;21.030;2023-01-08T06:27:24;3.70;99.90
44894;DHT22;30625;52.206;21.030;2023-01-08T06:29:49;3.60;99.90
44894;DHT22;30625;52.206;21.030;2023-01-08T06:32:15;4.50;99.90
44894;DHT22;30625;52.206;21.030;2023-01-08T06:34:41;3.60;99.90
44894;DHT22;30625;52.206;21.030;2023-01-08T06:37:06;3.60;99.90
44894;DHT22;30625;52.206;21.030;2023-01-08T06:39:32;4.00;99.90
44894;DHT22;30625;52.206;21.030;2023-01-08T06:41:58;3.50;99.90
44894;DHT22;30625;52.206;21.030;2023-01-08T06:44:23;3.50;99.90
44894;DHT22;30625;52.206;21.030;2023-01-08T06:46:50;3.70;99.90
44894;DHT22;30625;52.206;21.030;2023-01-08T06:49:15;3.50;99.90
44894;DHT22;30625;52.206;21.030;2023-01-08T06:51:42;3.60;99.90
44894;DHT22;30625;52.206;21.030;2023-01-08T06:54:07;4.00;99.90
44894;DHT22;30625;52.206;21.030;2023-01-08T06:56:33;3.60;99.90
44894;DHT22;30625;52.206;21.030;2023-01-08T06:58:59;3.50;99.90
44894;DHT22;30625;52.206;21.030;2023-01-08T07:01:24;3.50;99.90
44894;DHT22;30625;52.206;21.030;2023-01-08T07:03:50;3.50;99.90
44894;DHT22;30625;52.206;21.030;2023-01-08T07:06:18;3.50;99.90
44894;DHT22;30625;52.206;21.030;2023-01-08T07:08:45;3.60;99.90
44894;DHT22;30625;52.206;21.030;2023-01-08T07:11:11;3.60;99.90
44894;DHT22;30625;52.206;21.030;2023-01-08T07:13:37;3.50;99.90
44894;DHT22;30625;52.206;21.030;2023-01-08T07:16:11;3.50;99.90
44894;DHT22;30625;52.206;21.030;2023-01-08T07:18:38;3.50;99.90
44894;DHT22;30625;52.206;21.030;2023-01-08T07:21:07;3.50;99.90
44894;DHT22;30625;52.206;21.030;2023-01-08T07:23:33;3.50;99.90
44894;DHT22;30625;52.206;21.030;2023-01-08T07:26:00;3.40;99.90
44894;DHT22;30625;52.206;21.030;2023-01-08T07:28:26;3.40;99.90
44894;DHT22;30625;52.206;21.030;2023-01-08T07:30:52;3.30;99.90
44894;DHT22;30625;52.206;21.030;2023-01-08T07:33:18;3.40;99.90
44894;DHT22;30625;52.206;21.030;2023-01-08T07:35:53;3.50;99.90
44894;DHT22;30625;52.206;21.030;2023-01-08T07:38:19;3.40;99.90
44894;DHT22;30625;52.206;21.030;2023-01-08T07:40:45;3.40;99.90
44894;DHT22;30625;52.206;21.030;2023-01-08T07:43:11;3.70;99.90
44894;DHT22;30625;52.206;21.030;2023-01-08T07:45:37;3.50;99.90
44894;DHT22;30625;52.206;21.030;2023-01-08T07:48:04;4.30;99.90
44894;DHT22;30625;52.206;21.030;2023-01-08T07:50:29;3.40;99.90
44894;DHT22;30625;52.206;21.030;2023-01-08T07:52:57;3.40;99.90
44894;DHT22;30625;52.206;21.030;2023-01-08T07:55:23;3.40;99.90
44894;DHT22;30625;52.206;21.030;2023-01-08T07:57:48;3.40;99.90
44894;DHT22;30625;52.206;21.030;2023-01-08T08:00:14;4.80;99.90
44894;DHT22;30625;52.206;21.030;2023-01-08T08:02:40;3.50;99.90
44894;DHT22;30625;52.206;21.030;2023-01-08T08:05:06;3.60;99.90
44894;DHT22;30625;52.206;21.030;2023-01-08T08:07:31;3.60;99.90
44894;DHT22;30625;52.206;21.030;2023-01-08T08:09:57;3.60;99.90
44894;DHT22;30625;52.206;21.030;2023-01-08T08:12:23;3.60;99.90
44894;DHT22;30625;52.206;21.030;2023-01-08T08:14:48;3.60;99.90
44894;DHT22;30625;52.206;21.030;2023-01-08T08:17:14;3.60;99.90
44894;DHT22;30625;52.206;21.030;2023-01-08T08:19:40;3.50;99.90
44894;DHT22;30625;52.206;21.030;2023-01-08T08:22:08;3.40;99.90
44894;DHT22;30625;52.206;21.030;2023-01-08T08:24:34;3.40;99.90
44894;DHT22;30625;52.206;21.030;2023-01-08T08:26:59;3.50;99.90
44894;DHT22;30625;52.206;21.030;2023-01-08T08:29:25;3.60;99.90
44894;DHT22;30625;52.206;21.030;2023-01-08T08:31:50;2.90;99.90
44894;DHT22;30625;52.206;21.030;2023-01-08T08:34:16;3.60;99.90
44894;DHT22;30625;52.206;21.030;2023-01-08T08:36:42;3.60;99.90
44894;DHT22;30625;52.206;21.030;2023-01-08T08:39:07;3.60;99.90
44894;DHT22;30625;52.206;21.030;2023-01-08T08:41:33;3.60;99.90
44894;DHT22;30625;52.206;21.030;2023-01-08T08:43:59;3.60;99.90
44894;DHT22;30625;52.206;21.030;2023-01-08T08:46:24;3.70;99.90
44894;DHT22;30625;52.206;21.030;2023-01-08T08:48:50;3.80;99.90
44894;DHT22;30625;52.206;21.030;2023-01-08T08:51:16;3.80;99.90
44894;DHT22;30625;52.206;21.030;2023-01-08T08:53:41;3.80;99.90
44894;DHT22;30625;52.206;21.030;2023-01-08T08:56:07;3.80;99.90
44894;DHT22;30625;52.206;21.030;2023-01-08T08:58:32;3.80;99.90
44894;DHT22;30625;52.206;21.030;2023-01-08T09:01:03;3.80;99.90
44894;DHT22;30625;52.206;21.030;2023-01-08T09:03:29;3.80;99.90
44894;DHT22;30625;52.206;21.030;2023-01-08T09:05:55;3.80;99.90
44894;DHT22;30625;52.206;21.030;2023-01-08T09:08:20;3.80;99.90
44894;DHT22;30625;52.206;21.030;2023-01-08T09:10:46;4.40;99.90
44894;DHT22;30625;52.206;21.030;2023-01-08T09:13:12;3.90;99.90
44894;DHT22;30625;52.206;21.030;2023-01-08T09:15:38;3.80;99.90
44894;DHT22;30625;52.206;21.030;2023-01-08T09:18:04;3.90;99.90
44894;DHT22;30625;52.206;21.030;2023-01-08T09:20:29;3.80;99.90
44894;DHT22;30625;52.206;21.030;2023-01-08T09:22:59;3.90;99.90
44894;DHT22;30625;52.206;21.030;2023-01-08T09:25:26;3.90;99.90
44894;DHT22;30625;52.206;21.030;2023-01-08T09:28:03;3.80;99.90
44894;DHT22;30625;52.206;21.030;2023-01-08T09:30:30;3.90;99.90
44894;DHT22;30625;52.206;21.030;2023-01-08T09:33:00;3.90;99.90
44894;DHT22;30625;52.206;21.030;2023-01-08T09:35:26;3.90;99.90
44894;DHT22;30625;52.206;21.030;2023-01-08T09:37:52;3.90;99.90
44894;DHT22;30625;52.206;21.030;2023-01-08T09:40:20;3.90;99.90
44894;DHT22;30625;52.206;21.030;2023-01-08T09:42:53;3.90;99.90
44894;DHT22;30625;52.206;21.030;2023-01-08T09:45:40;3.90;99.90
44894;DHT22;30625;52.206;21.030;2023-01-08T09:48:12;4.00;99.90
44894;DHT22;30625;52.206;21.030;2023-01-08T09:50:38;4.10;99.90
44894;DHT22;30625;52.206;21.030;2023-01-08T09:53:04;4.10;99.90
44894;DHT22;30625;52.206;21.030;2023-01-08T09:55:33;4.30;99.90
44894;DHT22;30625;52.206;21.030;2023-01-08T09:57:59;4.10;99.90
44894;DHT22;30625;52.206;21.030;2023-01-08T10:00:29;4.30;99.90
44894;DHT22;30625;52.206;21.030;2023-01-08T10:02:56;4.20;99.90
44894;DHT22;30625;52.206;21.030;2023-01-08T10:05:22;4.30;99.90
44894;DHT22;30625;52.206;21.030;2023-01-08T10:07:52;4.30;99.90
44894;DHT22;30625;52.206;21.030;2023-01-08T10:10:22;4.90;99.90
44894;DHT22;30625;52.206;21.030;2023-01-08T10:12:49;4.40;99.90
44894;DHT22;30625;52.206;21.030;2023-01-08T10:15:17;4.40;99.90
44894;DHT22;30625;52.206;21.030;2023-01-08T10:20:24;4.40;99.90
44894;DHT22;30625;52.206;21.030;2023-01-08T10:22:51;4.40;99.90
44894;DHT22;30625;52.206;21.030;2023-01-08T10:25:26;4.40;99.90
44894;DHT22;30625;52.206;21.030;2023-01-08T10:28:00;4.40;99.90
44894;DHT22;30625;52.206;21.030;2023-01-08T10:30:33;4.40;99.90
44894;DHT22;30625;52.206;21.030;2023-01-08T10:33:13;4.40;99.90
44894;DHT22;30625;52.206;21.030;2023-01-08T10:35:42;4.30;99.90
44894;DHT22;30625;52.206;21.030;2023-01-08T10:38:30;4.30;99.90
44894;DHT22;30625;52.206;21.030;2023-01-08T10:40:56;4.30;99.90
44894;DHT22;30625;52.206;21.030;2023-01-08T10:43:30;4.30;99.90
44894;DHT22;30625;52.206;21.030;2023-01-08T10:46:03;4.30;99.90
44894;DHT22;30625;52.206;21.030;2023-01-08T10:48:39;4.20;99.90
44894;DHT22;30625;52.206;21.030;2023-01-08T10:51:18;4.20;99.90
44894;DHT22;30625;52.206;21.030;2023-01-08T10:53:44;4.20;99.90
44894;DHT22;30625;52.206;21.030;2023-01-08T10:56:22;4.10;99.90
44894;DHT22;30625;52.206;21.030;2023-01-08T10:58:49;4.10;99.90
44894;DHT22;30625;52.206;21.030;2023-01-08T11:01:19;4.10;99.90
44894;DHT22;30625;52.206;21.030;2023-01-08T11:03:52;4.10;99.90
44894;DHT22;30625;52.206;21.030;2023-01-08T11:06:32;4.10;99.90
44894;DHT22;30625;52.206;21.030;2023-01-08T11:09:00;4.10;99.90
44894;DHT22;30625;52.206;21.030;2023-01-08T11:11:36;4.10;99.90
44894;DHT22;30625;52.206;21.030;2023-01-08T11:14:10;4.10;99.90
44894;DHT22;30625;52.206;21.030;2023-01-08T11:16:40;4.10;99.90
44894;DHT22;30625;52.206;21.030;2023-01-08T11:19:18;4.20;99.90
44894;DHT22;30625;52.206;21.030;2023-01-08T11:22:39;4.30;99.90
44894;DHT22;30625;52.206;21.030;2023-01-08T11:24:39;4.20;99.90
44894;DHT22;30625;52.206;21.030;2023-01-08T11:30:06;4.10;99.90
44894;DHT22;30625;52.206;21.030;2023-01-08T11:35:24;4.10;99.90
44894;DHT22;30625;52.206;21.030;2023-01-08T11:37:51;4.20;99.90
44894;DHT22;30625;52.206;21.030;2023-01-08T11:40:51;4.00;99.90
44894;DHT22;30625;52.206;21.030;2023-01-08T12:11:31;4.70;99.90
44894;DHT22;30625;52.206;21.030;2023-01-08T12:16:59;4.10;99.90
44894;DHT22;30625;52.206;21.030;2023-01-08T12:19:37;3.90;99.90
44894;DHT22;30625;52.206;21.030;2023-01-08T12:33:04;3.90;99.90
44894;DHT22;30625;52.206;21.030;2023-01-08T12:35:35;3.90;99.90
44894;DHT22;30625;52.206;21.030;2023-01-08T12:38:19;4.00;99.90
44894;DHT22;30625;52.206;21.030;2023-01-08T12:40:53;3.90;99.90
44894;DHT22;30625;52.206;21.030;2023-01-08T12:43:24;3.90;99.90
44894;DHT22;30625;52.206;21.030;2023-01-08T12:45:55;4.00;99.90
44894;DHT22;30625;52.206;21.030;2023-01-08T12:48:27;4.00;99.90
44894;DHT22;30625;52.206;21.030;2023-01-08T12:51:07;4.00;99.90
44894;DHT22;30625;52.206;21.030;2023-01-08T12:56:26;4.00;99.90
44894;DHT22;30625;52.206;21.030;2023-01-08T13:04:07;4.00;99.90
44894;DHT22;30625;52.206;21.030;2023-01-08T13:06:34;3.90;99.90
44894;DHT22;30625;52.206;21.030;2023-01-08T13:08:59;3.80;99.90
44894;DHT22;30625;52.206;21.030;2023-01-08T13:11:30;3.80;99.90
44894;DHT22;30625;52.206;21.030;2023-01-08T13:14:03;3.90;99.90
44894;DHT22;30625;52.206;21.030;2023-01-08T13:16:37;3.80;99.90
44894;DHT22;30625;52.206;21.030;2023-01-08T13:19:05;3.90;99.90
44894;DHT22;30625;52.206;21.030;2023-01-08T13:21:57;3.80;99.90
44894;DHT22;30625;52.206;21.030;2023-01-08T13:24:34;3.70;99.90
44894;DHT22;30625;52.206;21.030;2023-01-08T13:32:44;3.80;99.90
44894;DHT22;30625;52.206;21.030;2023-01-08T13:37:48;3.70;99.90
44894;DHT22;30625;52.206;21.030;2023-01-08T13:40:54;3.80;99.90
44894;DHT22;30625;52.206;21.030;2023-01-08T13:43:24;3.70;99.90
44894;DHT22;30625;52.206;21.030;2023-01-08T13:48:34;3.80;99.90
44894;DHT22;30625;52.206;21.030;2023-01-08T13:51:00;3.80;99.90
44894;DHT22;30625;52.206;21.030;2023-01-08T13:53:25;3.80;99.90
44894;DHT22;30625;52.206;21.030;2023-01-08T13:56:06;3.80;99.90
44894;DHT22;30625;52.206;21.030;2023-01-08T13:58:35;3.80;99.90
44894;DHT22;30625;52.206;21.030;2023-01-08T14:01:03;3.80;99.90
44894;DHT22;30625;52.206;21.030;2023-01-08T14:03:35;3.80;99.90
44894;DHT22;30625;52.206;21.030;2023-01-08T14:06:06;3.80;99.90
44894;DHT22;30625;52.206;21.030;2023-01-08T14:08:32;3.80;99.90
44894;DHT22;30625;52.206;21.030;2023-01-08T14:10:58;3.70;99.90
44894;DHT22;30625;52.206;21.030;2023-01-08T14:13:29;4.60;99.90
44894;DHT22;30625;52.206;21.030;2023-01-08T14:15:58;3.70;99.90
44894;DHT22;30625;52.206;21.030;2023-01-08T14:18:26;3.70;99.90
44894;DHT22;30625;52.206;21.030;2023-01-08T14:20:53;3.60;99.90
44894;DHT22;30625;52.206;21.030;2023-01-08T14:23:20;3.60;99.90
44894;DHT22;30625;52.206;21.030;2023-01-08T14:25:48;4.00;99.90
44894;DHT22;30625;52.206;21.030;2023-01-08T14:28:19;3.70;99.90
44894;DHT22;30625;52.206;21.030;2023-01-08T14:30:50;3.60;99.90
44894;DHT22;30625;52.206;21.030;2023-01-08T14:33:20;3.60;99.90
44894;DHT22;30625;52.206;21.030;2023-01-08T14:35:47;3.60;99.90
44894;DHT22;30625;52.206;21.030;2023-01-08T14:38:15;3.60;99.90
44894;DHT22;30625;52.206;21.030;2023-01-08T14:40:46;3.50;99.90
44894;DHT22;30625;52.206;21.030;2023-01-08T14:43:14;3.50;99.90
44894;DHT22;30625;52.206;21.030;2023-01-08T14:45:49;3.50;99.90
44894;DHT22;30625;52.206;21.030;2023-01-08T14:51:03;3.60;99.90
44894;DHT22;30625;52.206;21.030;2023-01-08T14:53:36;3.60;99.90
44894;DHT22;30625;52.206;21.030;2023-01-08T14:56:04;3.60;99.90
44894;DHT22;30625;52.206;21.030;2023-01-08T14:58:37;3.60;99.90
44894;DHT22;30625;52.206;21.030;2023-01-08T15:01:16;3.70;99.90
44894;DHT22;30625;52.206;21.030;2023-01-08T15:03:44;3.70;99.90
44894;DHT22;30625;52.206;21.030;2023-01-08T15:06:11;3.60;99.90
44894;DHT22;30625;52.206;21.030;2023-01-08T15:08:40;3.50;99.90
44894;DHT22;30625;52.206;21.030;2023-01-08T15:11:27;3.60;99.90
44894;DHT22;30625;52.206;21.030;2023-01-08T15:13:55;3.60;99.90
44894;DHT22;30625;52.206;21.030;2023-01-08T15:16:33;3.60;99.90
44894;DHT22;30625;52.206;21.030;2023-01-08T15:21:37;3.60;99.90
44894;DHT22;30625;52.206;21.030;2023-01-08T15:24:04;3.60;99.90
44894;DHT22;30625;52.206;21.030;2023-01-08T15:26:30;3.60;99.90
44894;DHT22;30625;52.206;21.030;2023-01-08T15:28:57;3.60;99.90
44894;DHT22;30625;52.206;21.030;2023-01-08T15:33:53;3.60;99.90
44894;DHT22;30625;52.206;21.030;2023-01-08T15:36:18;3.60;99.90
44894;DHT22;30625;52.206;21.030;2023-01-08T15:38:47;4.20;99.90
44894;DHT22;30625;52.206;21.030;2023-01-08T15:41:18;3.50;99.90
44894;DHT22;30625;52.206;21.030;2023-01-08T15:44:03;4.40;99.90
44894;DHT22;30625;52.206;21.030;2023-01-08T15:46:29;3.50;99.90
44894;DHT22;30625;52.206;21.030;2023-01-08T15:48:54;3.50;99.90
44894;DHT22;30625;52.206;21.030;2023-01-08T15:51:21;4.20;99.90
44894;DHT22;30625;52.206;21.030;2023-01-08T15:53:47;3.50;99.90
44894;DHT22;30625;52.206;21.030;2023-01-08T15:56:13;3.50;99.90
44894;DHT22;30625;52.206;21.030;2023-01-08T15:58:39;3.60;99.90
44894;DHT22;30625;52.206;21.030;2023-01-08T16:01:04;3.50;99.90
44894;DHT22;30625;52.206;21.030;2023-01-08T16:03:30;3.90;99.90
44894;DHT22;30625;52.206;21.030;2023-01-08T16:05:56;3.50;99.90
44894;DHT22;30625;52.206;21.030;2023-01-08T16:08:22;3.50;99.90
44894;DHT22;30625;52.206;21.030;2023-01-08T16:10:53;3.50;99.90
44894;DHT22;30625;52.206;21.030;2023-01-08T16:13:19;3.50;99.90
44894;DHT22;30625;52.206;21.030;2023-01-08T16:15:45;3.50;99.90
44894;DHT22;30625;52.206;21.030;2023-01-08T16:18:11;3.40;99.90
44894;DHT22;30625;52.206;21.030;2023-01-08T16:20:37;3.50;99.90
44894;DHT22;30625;52.206;21.030;2023-01-08T16:23:02;3.50;99.90
44894;DHT22;30625;52.206;21.030;2023-01-08T16:25:28;3.50;99.90
44894;DHT22;30625;52.206;21.030;2023-01-08T16:27:55;3.50;99.90
44894;DHT22;30625;52.206;21.030;2023-01-08T16:30:21;3.40;99.90
44894;DHT22;30625;52.206;21.030;2023-01-08T16:32:51;3.50;99.90
44894;DHT22;30625;52.206;21.030;2023-01-08T16:35:18;3.50;99.90
44894;DHT22;30625;52.206;21.030;2023-01-08T16:37:44;3.50;99.90
44894;DHT22;30625;52.206;21.030;2023-01-08T16:40:10;3.40;99.90
44894;DHT22;30625;52.206;21.030;2023-01-08T16:42:36;3.40;99.90
44894;DHT22;30625;52.206;21.030;2023-01-08T16:45:02;3.50;99.90
44894;DHT22;30625;52.206;21.030;2023-01-08T16:47:28;3.50;99.90
44894;DHT22;30625;52.206;21.030;2023-01-08T16:49:54;3.60;99.90
44894;DHT22;30625;52.206;21.030;2023-01-08T16:52:19;3.50;99.90
44894;DHT22;30625;52.206;21.030;2023-01-08T16:54:45;3.50;99.90
44894;DHT22;30625;52.206;21.030;2023-01-08T16:57:11;3.50;99.90
44894;DHT22;30625;52.206;21.030;2023-01-08T16:59:37;3.60;99.90
44894;DHT22;30625;52.206;21.030;2023-01-08T17:02:03;3.80;99.90
44894;DHT22;30625;52.206;21.030;2023-01-08T17:04:29;3.70;99.90
44894;DHT22;30625;52.206;21.030;2023-01-08T17:06:55;3.60;99.90
44894;DHT22;30625;52.206;21.030;2023-01-08T17:09:20;4.90;99.90
44894;DHT22;30625;52.206;21.030;2023-01-08T17:11:46;3.60;99.90